Terminal Aerodrome Forecast
Issued by NWS Wilmington, OH

Current Version | Previous Version | Graphics & Text | Print | Product List | Glossary On
Versions: 1 2 3 4 5 6 7 8 9 10 11 12 13 14 15 16 17 18 19 20 21 22 23 24
000
FTUS41 KILN 151100 RRA
TAFCMH
TAF
KCMH 151155Z 1512/1612 VRB04KT 5SM BR OVC035
     FM151300 15004KT P6SM OVC035
     FM151500 15004KT P6SM OVC025
     FM151900 15008KT P6SM SCT030 OVC250
     FM160300 15005KT P6SM -RA SCT025 OVC080
      TEMPO 1604/1608 BKN025
     FM160800 15007KT 5SM BR VCSH OVC020=

USA.gov is the U.S. government's official web portal to all federal, state and local government web resources and services.